Private Wetterstation Wechselburg
Wetterdaten: Woche 14.02.11 - 20.02.11 (KW7)
Datum Zeit Temp. +2m Bodentemp. Temp.+5cm Temp. Wind Windchill X Diff Temp. Feuchte +2m Feuchte +5cm Sonnenschein Luftdruck Regen Wind Richtung Sonnenschein UV Taupunkt Windchill Windben
14.02.2011 00:00 1,9 C 5,2 C 1,4 C 1,7 C 1,4 C 0,0 C 85 % 94 % 0 % 1010,4 hPa 0,0 l/m 1,4 km/h (1 Bft) S 0,00 h 0,0 UV-I -0,4 C 1,4 C 2,3 km/h (1 Bft)
14.02.2011 01:00 1,7 C 5,2 C 1,3 C 1,6 C 1,3 C 0,0 C 83 % 92 % 0 % 1010,6 hPa 0,0 l/m 2,0 km/h (1 Bft) SW 0,00 h 0,0 UV-I -0,8 C 1,3 C 2,7 km/h (1 Bft)
14.02.2011 02:00 1,6 C 5,1 C 1,2 C 1,3 C 0,8 C 0,0 C 83 % 91 % 0 % 1010,5 hPa 0,0 l/m 3,1 km/h (1 Bft) SW 0,00 h 0,0 UV-I -1,0 C 0,8 C 3,6 km/h (1 Bft)
14.02.2011 03:00 1,5 C 5,1 C 1,1 C 1,1 C 0,4 C 0,0 C 83 % 90 % 0 % 1009,9 hPa 0,0 l/m 3,4 km/h (1 Bft) SW 0,00 h 0,0 UV-I -1,1 C 0,3 C 4,2 km/h (1 Bft)
14.02.2011 04:00 1,3 C 5,1 C 1,0 C 1,0 C 0,4 C 0,0 C 84 % 90 % 0 % 1009,9 hPa 0,0 l/m 2,7 km/h (1 Bft) W-SW 0,00 h 0,0 UV-I -1,1 C 0,4 C 3,3 km/h (1 Bft)
14.02.2011 05:00 1,4 C 5,1 C 1,0 C 1,2 C 0,9 C 0,0 C 84 % 91 % 0 % 1009,9 hPa 0,0 l/m 1,0 km/h (0 Bft) S 0,00 h 0,0 UV-I -1,0 C 0,9 C 1,1 km/h (0 Bft)
14.02.2011 06:00 1,4 C 5,1 C 1,1 C 1,2 C 0,8 C 0,0 C 85 % 90 % 0 % 1009,6 hPa 0,0 l/m 0,9 km/h (0 Bft) SW 0,00 h 0,0 UV-I -0,8 C 0,8 C 1,3 km/h (1 Bft)
14.02.2011 07:00 1,3 C 5,0 C 0,9 C 0,7 C -0,7 C 0,0 C 84 % 89 % 0 % 1009,9 hPa 0,0 l/m 5,0 km/h (1 Bft) W-SW 0,00 h 0,0 UV-I -1,1 C -1,8 C 6,8 km/h (2 Bft)
14.02.2011 08:00 1,4 C 5,0 C 1,1 C 0,7 C -1,5 C 0,0 C 82 % 86 % 0 % 1010,0 hPa 0,0 l/m 8,2 km/h (2 Bft) W-SW 0,00 h 0,0 UV-I -1,2 C -4,6 C 11,6 km/h (2 Bft)
14.02.2011 09:00 2,0 C 4,9 C 1,5 C 1,4 C 0,0 C 0,0 C 81 % 85 % 0 % 1010,2 hPa 0,0 l/m 6,8 km/h (2 Bft) W-SW 0,00 h 0,1 UV-I -1,0 C -2,3 C 8,4 km/h (2 Bft)
14.02.2011 10:00 2,7 C 4,8 C 2,4 C 2,3 C 1,0 C 0,0 C 78 % 82 % 0 % 1010,3 hPa 0,0 l/m 8,6 km/h (2 Bft) W-SW 0,00 h 0,2 UV-I -0,7 C -1,7 C 10,2 km/h (2 Bft)
14.02.2011 11:00 3,6 C 4,9 C 3,3 C 3,4 C 2,3 C 0,0 C 76 % 80 % 0 % 1010,6 hPa 0,0 l/m 9,1 km/h (2 Bft) W-SW 0,00 h 0,3 UV-I -0,1 C -0,3 C 11,6 km/h (2 Bft)
14.02.2011 12:00 4,2 C 5,0 C 3,8 C 3,9 C 3,0 C 0,0 C 76 % 79 % 0 % 1010,5 hPa 0,0 l/m 9,6 km/h (2 Bft) W-SW 0,00 h 0,4 UV-I 0,3 C 0,4 C 11,9 km/h (2 Bft)
14.02.2011 13:00 5,0 C 5,1 C 4,7 C 6,7 C 6,6 C 1,7 C 74 % 77 % 45 % 1009,9 hPa 0,0 l/m 7,2 km/h (2 Bft) W-SW 0,00 h 0,4 UV-I 0,8 C 5,3 C 8,9 km/h (2 Bft)
14.02.2011 14:00 5,3 C 5,2 C 5,2 C 5,5 C 5,5 C 0,2 C 73 % 75 % 6 % 1009,4 hPa 0,0 l/m 6,3 km/h (2 Bft) W-SW 0,00 h 0,2 UV-I 0,9 C 4,2 C 8,1 km/h (2 Bft)
14.02.2011 15:00 4,8 C 5,4 C 4,6 C 4,7 C 3,5 C 0,1 C 75 % 77 % 3 % 1009,0 hPa 0,0 l/m 12,1 km/h (2 Bft) SW 0,00 h 0,1 UV-I 0,7 C 0,5 C 14,8 km/h (3 Bft)
14.02.2011 16:00 4,0 C 5,5 C 3,7 C 3,6 C 2,2 C 0,0 C 77 % 79 % 1 % 1009,0 hPa 0,0 l/m 10,0 km/h (2 Bft) W-SW 0,00 h 0,0 UV-I 0,2 C -0,7 C 11,5 km/h (2 Bft)
14.02.2011 17:00 2,9 C 5,6 C 2,5 C 2,0 C 0,0 C 0,0 C 79 % 82 % 0 % 1009,6 hPa 0,0 l/m 6,7 km/h (2 Bft) W-SW 0,00 h 0,0 UV-I -0,4 C -2,1 C 8,2 km/h (2 Bft)
14.02.2011 18:00 2,0 C 5,6 C 1,4 C 1,2 C -0,4 C 0,0 C 79 % 83 % 0 % 1010,1 hPa 0,0 l/m 4,4 km/h (1 Bft) SW 0,00 h 0,0 UV-I -1,2 C -1,2 C 4,0 km/h (1 Bft)
14.02.2011 19:00 1,6 C 5,6 C 1,2 C 0,8 C -0,8 C 0,0 C 81 % 84 % 0 % 1010,2 hPa 0,0 l/m 4,9 km/h (1 Bft) W-SW 0,00 h 0,0 UV-I -1,3 C -1,9 C 7,1 km/h (2 Bft)
14.02.2011 20:00 1,1 C 5,6 C 0,7 C 0,3 C -1,3 C 0,0 C 82 % 85 % 0 % 1009,8 hPa 0,0 l/m 3,8 km/h (1 Bft) SW 0,00 h 0,0 UV-I -1,6 C -1,8 C 3,6 km/h (1 Bft)
14.02.2011 21:00 0,8 C 5,5 C 0,3 C 0,1 C -1,3 C 0,0 C 84 % 87 % 0 % 1009,5 hPa 0,0 l/m 2,9 km/h (1 Bft) W-SW 0,00 h 0,0 UV-I -1,7 C -1,5 C 3,3 km/h (1 Bft)
14.02.2011 22:00 0,7 C 5,4 C 0,4 C 0,2 C -0,9 C 0,0 C 84 % 87 % 0 % 1009,0 hPa 0,0 l/m 2,4 km/h (1 Bft) S 0,00 h 0,0 UV-I -1,6 C -0,9 C 2,9 km/h (1 Bft)
14.02.2011 23:00 0,7 C 5,3 C 0,4 C -0,0 C -1,5 C 0,0 C 84 % 87 % 0 % 1008,7 hPa 0,0 l/m 3,6 km/h (1 Bft) W-SW 0,00 h 0,0 UV-I -1,6 C -2,1 C 4,7 km/h (1 Bft)
15.02.2011 00:00 0,6 C 5,2 C 0,2 C 0,1 C -1,0 C 0,0 C 84 % 86 % 0 % 1008,3 hPa 0,0 l/m 1,7 km/h (1 Bft) W-SW 0,00 h 0,0 UV-I -1,8 C -1,2 C 2,6 km/h (1 Bft)
15.02.2011 01:00 0,6 C 5,2 C 0,2 C -0,1 C -1,5 C 0,0 C 85 % 88 % 0 % 1007,8 hPa 0,0 l/m 4,4 km/h (1 Bft) SW 0,00 h 0,0 UV-I -1,6 C -2,6 C 5,9 km/h (2 Bft)
15.02.2011 02:00 0,6 C 5,2 C 0,2 C -0,0 C -1,2 C 0,0 C 85 % 87 % 0 % 1007,0 hPa 0,0 l/m 3,0 km/h (1 Bft) SW 0,00 h 0,0 UV-I -1,6 C -1,4 C 3,7 km/h (1 Bft)
15.02.2011 03:00 0,5 C 5,0 C 0,0 C 0,0 C -0,8 C 0,0 C 85 % 88 % 0 % 1006,4 hPa 0,0 l/m 1,9 km/h (1 Bft) W-SW 0,00 h 0,0 UV-I -1,7 C -0,8 C 2,5 km/h (1 Bft)
15.02.2011 04:00 0,8 C 4,8 C 0,7 C 0,3 C -0,8 C 0,0 C 83 % 86 % 0 % 1005,5 hPa 0,0 l/m 4,1 km/h (1 Bft) W-SW 0,00 h 0,0 UV-I -1,7 C -1,2 C 7,4 km/h (2 Bft)
15.02.2011 05:00 0,8 C 4,8 C 0,7 C 0,3 C -0,8 C 0,0 C 83 % 85 % 0 % 1004,9 hPa 0,0 l/m 4,2 km/h (1 Bft) W-SW 0,00 h 0,0 UV-I -1,8 C -1,6 C 6,9 km/h (2 Bft)
15.02.2011 06:00 0,8 C 4,7 C 0,6 C 0,5 C -0,0 C 0,0 C 82 % 84 % 0 % 1004,6 hPa 0,0 l/m 2,0 km/h (1 Bft) W-SW 0,00 h 0,0 UV-I -2,0 C -0,0 C 3,0 km/h (1 Bft)
15.02.2011 07:00 0,7 C 4,7 C 0,4 C 0,2 C -0,9 C 0,0 C 81 % 84 % 0 % 1004,9 hPa 0,0 l/m 2,4 km/h (1 Bft) W-SW 0,00 h 0,0 UV-I -2,2 C -0,9 C 3,4 km/h (1 Bft)
15.02.2011 08:00 1,1 C 4,6 C 0,8 C 0,9 C 0,4 C 0,0 C 80 % 83 % 0 % 1004,7 hPa 0,0 l/m 2,3 km/h (1 Bft) W-SW 0,00 h 0,0 UV-I -2,0 C 0,4 C 2,5 km/h (1 Bft)
15.02.2011 09:00 1,7 C 4,5 C 1,4 C 1,7 C 1,6 C 0,0 C 78 % 80 % 1 % 1004,9 hPa 0,0 l/m 2,3 km/h (1 Bft) SW 0,00 h 0,1 UV-I -1,7 C 1,6 C 2,4 km/h (1 Bft)
15.02.2011 10:00 2,5 C 4,5 C 2,1 C 2,7 C 2,6 C 0,3 C 76 % 79 % 7 % 1004,7 hPa 0,0 l/m 3,0 km/h (1 Bft) W-SW 0,00 h 0,1 UV-I -1,4 C 2,6 C 4,2 km/h (1 Bft)
15.02.2011 11:00 3,5 C 4,5 C 3,0 C 4,6 C 4,5 C 1,1 C 73 % 76 % 29 % 1004,4 hPa 0,0 l/m 4,0 km/h (1 Bft) W-SW 0,00 h 0,3 UV-I -1,0 C 4,3 C 5,1 km/h (1 Bft)
15.02.2011 12:00 4,0 C 4,6 C 3,5 C 6,4 C 6,4 C 2,4 C 70 % 73 % 63 % 1004,4 hPa 0,0 l/m 5,2 km/h (1 Bft) W-SW 0,33 h 0,3 UV-I -1,0 C 5,9 C 8,5 km/h (2 Bft)
15.02.2011 13:00 4,0 C 4,8 C 3,5 C 6,2 C 6,2 C 2,2 C 70 % 73 % 57 % 1003,7 hPa 0,0 l/m 6,6 km/h (2 Bft) W-SW 0,17 h 0,3 UV-I -1,0 C 4,9 C 10,6 km/h (2 Bft)
15.02.2011 14:00 3,6 C 5,0 C 3,4 C 3,5 C 2,9 C 0,1 C 71 % 73 % 2 % 1003,1 hPa 0,0 l/m 7,4 km/h (2 Bft) W-SW 0,00 h 0,1 UV-I -1,2 C 0,9 C 10,9 km/h (2 Bft)
15.02.2011 15:00 3,5 C 5,2 C 3,8 C 5,5 C 5,5 C 2,0 C 70 % 71 % 53 % 1002,5 hPa 0,0 l/m 4,4 km/h (1 Bft) W-SW 0,33 h 0,1 UV-I -1,3 C 5,2 C 5,9 km/h (2 Bft)
15.02.2011 16:00 2,8 C 5,2 C 2,6 C 2,9 C 2,4 C 0,4 C 72 % 74 % 11 % 1002,1 hPa 0,0 l/m 4,4 km/h (1 Bft) W-SW 0,00 h 0,0 UV-I -1,7 C 1,9 C 5,1 km/h (1 Bft)
15.02.2011 17:00 2,1 C 5,3 C 1,7 C 1,5 C 0,3 C 0,0 C 74 % 76 % 0 % 1001,8 hPa 0,0 l/m 2,4 km/h (1 Bft) W-SW 0,00 h 0,0 UV-I -2,1 C 0,3 C 3,2 km/h (1 Bft)
15.02.2011 18:00 1,6 C 5,3 C 1,0 C 0,8 C -0,8 C 0,0 C 76 % 80 % 0 % 1002,0 hPa 0,0 l/m 3,7 km/h (1 Bft) SW 0,00 h 0,0 UV-I -2,2 C -1,5 C 4,1 km/h (1 Bft)
15.02.2011 19:00 0,9 C 5,3 C 0,1 C 0,1 C -1,3 C 0,0 C 77 % 81 % 0 % 1002,5 hPa 0,0 l/m 1,6 km/h (1 Bft) W-SW 0,00 h 0,0 UV-I -2,7 C -1,3 C 2,3 km/h (1 Bft)
15.02.2011 20:00 0,8 C 5,1 C 0,7 C 0,4 C -0,6 C 0,0 C 75 % 78 % 0 % 1002,9 hPa 0,0 l/m 2,1 km/h (1 Bft) W 0,00 h 0,0 UV-I -3,0 C -0,6 C 2,5 km/h (1 Bft)
15.02.2011 21:00 0,9 C 5,0 C 0,7 C 0,4 C -0,5 C 0,0 C 74 % 76 % 0 % 1003,0 hPa 0,0 l/m 2,6 km/h (1 Bft) W-SW 0,00 h 0,0 UV-I -3,3 C -0,5 C 3,7 km/h (1 Bft)
15.02.2011 22:00 0,8 C 4,9 C 0,7 C 0,5 C -0,1 C 0,0 C 74 % 76 % 0 % 1002,8 hPa 0,0 l/m 2,1 km/h (1 Bft) W-SW 0,00 h 0,0 UV-I -3,3 C -0,1 C 2,6 km/h (1 Bft)
15.02.2011 23:00 0,8 C 4,8 C 0,7 C 0,5 C -0,1 C 0,0 C 74 % 76 % 0 % 1002,4 hPa 0,0 l/m 2,4 km/h (1 Bft) W-SW 0,00 h 0,0 UV-I -3,2 C -0,1 C 3,0 km/h (1 Bft)
16.02.2011 00:00 0,9 C 4,8 C 0,6 C 0,6 C -0,1 C 0,0 C 73 % 76 % 0 % 1002,7 hPa 0,0 l/m 2,1 km/h (1 Bft) W-SW 0,00 h 0,0 UV-I -3,4 C -0,1 C 2,4 km/h (1 Bft)
16.02.2011 01:00 0,7 C 4,7 C 0,3 C 0,3 C -0,4 C 0,0 C 74 % 76 % 0 % 1002,4 hPa 0,0 l/m 1,1 km/h (1 Bft) SW 0,00 h 0,0 UV-I -3,5 C -0,4 C 2,2 km/h (1 Bft)
16.02.2011 02:00 0,7 C 4,7 C 0,4 C 0,5 C 0,1 C 0,0 C 73 % 76 % 0 % 1002,5 hPa 0,0 l/m 1,6 km/h (1 Bft) W-SW 0,00 h 0,0 UV-I -3,6 C 0,1 C 2,3 km/h (1 Bft)
16.02.2011 03:00 0,7 C 4,6 C 0,3 C 0,3 C -0,4 C 0,0 C 73 % 75 % 0 % 1002,2 hPa 0,0 l/m 1,1 km/h (1 Bft) W-SW 0,00 h 0,0 UV-I -3,7 C -0,4 C 2,3 km/h (1 Bft)
16.02.2011 04:00 0,4 C 4,6 C 0,1 C -0,0 C -0,9 C 0,0 C 73 % 75 % 0 % 1002,2 hPa 0,0 l/m 2,3 km/h (1 Bft) W-SW 0,00 h 0,0 UV-I -3,9 C -0,9 C 3,2 km/h (1 Bft)
16.02.2011 05:00 0,4 C 4,5 C 0,1 C 0,2 C -0,3 C 0,0 C 72 % 75 % 0 % 1002,1 hPa 0,0 l/m 0,7 km/h (0 Bft) N 0,00 h 0,0 UV-I -4,0 C -0,3 C 1,4 km/h (1 Bft)
16.02.2011 06:00 0,5 C 4,4 C 0,3 C 0,3 C -0,2 C 0,0 C 73 % 76 % 0 % 1002,0 hPa 0,0 l/m 0,2 km/h (0 Bft) N 0,00 h 0,0 UV-I -3,8 C -0,2 C 1,0 km/h (0 Bft)
16.02.2011 07:00 0,6 C 4,4 C 0,3 C 0,4 C 0,0 C 0,0 C 73 % 75 % 0 % 1002,4 hPa 0,0 l/m 1,1 km/h (1 Bft) W-SW 0,00 h 0,0 UV-I -3,6 C 0,0 C 1,8 km/h (1 Bft)
16.02.2011 08:00 0,9 C 4,4 C 0,6 C 0,7 C 0,5 C 0,0 C 73 % 76 % 0 % 1002,3 hPa 0,0 l/m 0,7 km/h (0 Bft) S-SO 0,00 h 0,0 UV-I -3,4 C 0,5 C 1,5 km/h (1 Bft)
16.02.2011 09:00 1,3 C 4,4 C 1,0 C 1,3 C 1,3 C 0,1 C 72 % 75 % 2 % 1002,6 hPa 0,0 l/m 0,3 km/h (0 Bft) N 0,00 h 0,0 UV-I -3,2 C 1,3 C 0,8 km/h (0 Bft)
16.02.2011 10:00 2,0 C 4,4 C 1,6 C 2,4 C 2,4 C 0,4 C 70 % 73 % 10 % 1003,0 hPa 0,0 l/m 0,8 km/h (0 Bft) W-SW 0,00 h 0,1 UV-I -2,8 C 2,4 C 1,7 km/h (1 Bft)
16.02.2011 11:00 3,1 C 4,4 C 2,8 C 4,3 C 4,3 C 1,2 C 68 % 70 % 33 % 1003,0 hPa 0,0 l/m 2,2 km/h (1 Bft) W-SW 0,00 h 0,2 UV-I -2,3 C 4,3 C 2,6 km/h (1 Bft)
16.02.2011 12:00 4,0 C 4,5 C 3,6 C 5,3 C 5,3 C 1,3 C 66 % 68 % 35 % 1002,9 hPa 0,0 l/m 2,3 km/h (1 Bft) W-SW 0,00 h 0,2 UV-I -1,8 C 5,3 C 4,0 km/h (1 Bft)
16.02.2011 13:00 4,2 C 4,6 C 3,9 C 4,7 C 4,6 C 0,5 C 67 % 70 % 12 % 1002,6 hPa 0,0 l/m 4,6 km/h (1 Bft) SW 0,00 h 0,2 UV-I -1,4 C 3,8 C 5,8 km/h (2 Bft)
16.02.2011 14:00 4,3 C 4,7 C 4,1 C 4,2 C 3,6 C 0,0 C 67 % 70 % 1 % 1002,1 hPa 0,0 l/m 7,1 km/h (2 Bft) W-SW 0,00 h 0,1 UV-I -1,2 C 1,8 C 9,2 km/h (2 Bft)
16.02.2011 15:00 4,5 C 4,8 C 5,8 C 8,1 C 8,0 C 3,6 C 68 % 65 % 90 % 1002,0 hPa 0,0 l/m 7,3 km/h (2 Bft) W-SW 0,77 h 0,1 UV-I -0,9 C 6,9 C 8,1 km/h (2 Bft)
16.02.2011 16:00 4,1 C 5,0 C 3,9 C 5,0 C 4,8 C 1,0 C 71 % 72 % 26 % 1002,4 hPa 0,0 l/m 6,2 km/h (2 Bft) SW 0,42 h 0,0 UV-I -0,8 C 3,6 C 6,8 km/h (2 Bft)
16.02.2011 17:00 2,4 C 5,0 C 2,0 C 1,4 C -0,9 C 0,0 C 72 % 75 % 0 % 1002,2 hPa 0,0 l/m 6,8 km/h (2 Bft) SW 0,00 h 0,0 UV-I -2,0 C -3,3 C 8,4 km/h (2 Bft)
16.02.2011 18:00 1,0 C 5,1 C 0,5 C 0,0 C -2,0 C 0,0 C 76 % 80 % 0 % 1003,1 hPa 0,0 l/m 4,5 km/h (1 Bft) W-SW 0,00 h 0,0 UV-I -2,7 C -2,6 C 5,5 km/h (1 Bft)
16.02.2011 19:00 0,4 C 5,2 C -0,3 C -0,6 C -2,4 C 0,0 C 79 % 83 % 0 % 1003,4 hPa 0,0 l/m 4,1 km/h (1 Bft) W-SW 0,00 h 0,0 UV-I -2,8 C -2,7 C 4,7 km/h (1 Bft)
16.02.2011 20:00 -0,1 C 5,1 C -0,7 C -1,2 C -3,4 C 0,0 C 81 % 84 % 0 % 1003,0 hPa 0,0 l/m 5,5 km/h (1 Bft) W-SW 0,00 h 0,0 UV-I -3,0 C -5,6 C 6,3 km/h (2 Bft)
16.02.2011 21:00 -0,4 C 4,9 C -0,9 C -1,5 C -3,6 C 0,0 C 82 % 85 % 0 % 1002,8 hPa 0,0 l/m 5,1 km/h (1 Bft) SW 0,00 h 0,0 UV-I -3,1 C -5,5 C 5,8 km/h (2 Bft)
16.02.2011 22:00 -0,5 C 4,9 C -0,9 C -1,6 C -3,7 C 0,0 C 82 % 85 % 0 % 1002,6 hPa 0,0 l/m 5,4 km/h (1 Bft) SW 0,00 h 0,0 UV-I -3,2 C -5,9 C 6,5 km/h (2 Bft)
16.02.2011 23:00 -0,5 C 4,8 C -0,9 C -1,6 C -3,7 C 0,0 C 83 % 86 % 0 % 1002,3 hPa 0,0 l/m 6,0 km/h (2 Bft) W-SW 0,00 h 0,0 UV-I -3,0 C -6,3 C 6,9 km/h (2 Bft)
17.02.2011 00:00 -0,1 C 4,7 C -0,4 C -1,0 C -2,8 C 0,0 C 83 % 85 % 0 % 1002,4 hPa 0,0 l/m 5,6 km/h (1 Bft) W-SW 0,00 h 0,0 UV-I -2,7 C -5,0 C 7,8 km/h (2 Bft)
17.02.2011 01:00 0,3 C 4,7 C -0,1 C -0,7 C -2,8 C 0,0 C 82 % 85 % 0 % 1002,1 hPa 0,0 l/m 7,1 km/h (2 Bft) W-SW 0,00 h 0,0 UV-I -2,4 C -5,7 C 8,8 km/h (2 Bft)
17.02.2011 02:00 0,1 C 4,7 C -0,2 C -0,4 C -1,3 C 0,0 C 83 % 86 % 0 % 1001,9 hPa 0,0 l/m 3,4 km/h (1 Bft) W-SW 0,00 h 0,0 UV-I -2,5 C -2,0 C 3,7 km/h (1 Bft)
17.02.2011 03:00 0,1 C 4,6 C -0,1 C -0,2 C -1,0 C 0,0 C 84 % 86 % 0 % 1001,5 hPa 0,0 l/m 2,9 km/h (1 Bft) SW 0,00 h 0,0 UV-I -2,2 C -1,0 C 3,1 km/h (1 Bft)
17.02.2011 04:00 0,3 C 4,6 C -0,0 C 0,0 C -0,5 C 0,0 C 84 % 86 % 0 % 1001,1 hPa 0,0 l/m 2,5 km/h (1 Bft) W-SW 0,00 h 0,0 UV-I -2,1 C -0,5 C 2,9 km/h (1 Bft)
17.02.2011 05:00 0,3 C 4,6 C 0,1 C 0,1 C -0,2 C 0,0 C 84 % 86 % 0 % 1001,3 hPa 0,0 l/m 1,4 km/h (1 Bft) SW 0,00 h 0,0 UV-I -2,0 C -0,2 C 2,0 km/h (1 Bft)
17.02.2011 06:00 0,6 C 4,6 C 0,4 C 0,3 C -0,2 C 0,0 C 86 % 87 % 0 % 1001,3 hPa 0,0 l/m 2,8 km/h (1 Bft) SW 0,00 h 0,0 UV-I -1,6 C -0,2 C 3,3 km/h (1 Bft)
17.02.2011 07:00 0,4 C 4,6 C 0,2 C -0,0 C -0,8 C 0,0 C 86 % 88 % 0 % 1001,8 hPa 0,0 l/m 3,5 km/h (1 Bft) SW 0,00 h 0,0 UV-I -1,7 C -0,8 C 4,0 km/h (1 Bft)
17.02.2011 08:00 0,2 C 4,6 C -0,0 C -0,4 C -1,5 C 0,0 C 86 % 88 % 0 % 1002,1 hPa 0,0 l/m 4,4 km/h (1 Bft) SW 0,00 h 0,0 UV-I -1,8 C -2,6 C 5,1 km/h (1 Bft)
17.02.2011 09:00 0,3 C 4,6 C 0,1 C -0,2 C -1,2 C 0,0 C 85 % 87 % 0 % 1002,7 hPa 0,0 l/m 4,3 km/h (1 Bft) SW 0,00 h 0,0 UV-I -1,9 C -2,0 C 4,9 km/h (1 Bft)
17.02.2011 10:00 0,6 C 4,4 C 0,5 C 0,5 C 0,1 C 0,0 C 84 % 86 % 0 % 1003,4 hPa 0,0 l/m 3,0 km/h (1 Bft) SW 0,00 h 0,0 UV-I -1,7 C -0,2 C 3,1 km/h (1 Bft)
17.02.2011 11:00 1,0 C 4,4 C 0,8 C 1,0 C 0,9 C 0,0 C 83 % 85 % 0 % 1003,5 hPa 0,0 l/m 1,8 km/h (1 Bft) O-SO 0,00 h 0,1 UV-I -1,5 C 0,9 C 2,3 km/h (1 Bft)
17.02.2011 12:00 0,8 C 4,5 C 0,6 C 0,7 C 0,4 C 0,0 C 84 % 86 % 0 % 1004,1 hPa 0,0 l/m 2,5 km/h (1 Bft) W-SW 0,00 h 0,0 UV-I -1,6 C 0,4 C 3,3 km/h (1 Bft)
17.02.2011 13:00 0,7 C 4,6 C 0,4 C 0,4 C -0,3 C 0,0 C 85 % 87 % 0 % 1004,5 hPa 0,0 l/m 3,2 km/h (1 Bft) SW 0,00 h 0,0 UV-I -1,6 C -0,3 C 5,1 km/h (1 Bft)
17.02.2011 14:00 0,6 C 4,6 C 0,3 C 0,2 C -0,4 C 0,0 C 86 % 88 % 0 % 1004,2 hPa 0,0 l/m 3,2 km/h (1 Bft) SW 0,00 h 0,0 UV-I -1,6 C -0,4 C 4,4 km/h (1 Bft)
17.02.2011 15:00 0,4 C 4,9 C 0,1 C 0,0 C -0,7 C 0,0 C 88 % 90 % 0 % 1004,6 hPa 0,0 l/m 3,2 km/h (1 Bft) SW 0,00 h 0,0 UV-I -1,4 C -0,8 C 3,9 km/h (1 Bft)
17.02.2011 16:00 0,2 C 4,9 C -0,2 C 0,0 C -0,4 C 0,0 C 89 % 91 % 0 % 1004,9 hPa 0,0 l/m 1,9 km/h (1 Bft) SW 0,00 h 0,0 UV-I -1,4 C -0,4 C 1,9 km/h (1 Bft)
17.02.2011 17:00 -0,0 C 4,9 C -0,5 C -0,3 C -0,8 C 0,0 C 89 % 92 % 0 % 1005,5 hPa 0,0 l/m 0,8 km/h (0 Bft) SO 0,00 h 0,0 UV-I -1,6 C -0,8 C 1,8 km/h (1 Bft)
17.02.2011 18:00 -0,3 C 4,9 C -0,6 C -0,5 C -1,1 C 0,0 C 90 % 92 % 0 % 1006,3 hPa 0,0 l/m 0,0 km/h (0 Bft) N 0,00 h 0,0 UV-I -1,7 C -1,1 C 0,0 km/h (0 Bft)
17.02.2011 19:00 -0,3 C 4,9 C -0,8 C -0,6 C -1,1 C 0,0 C 90 % 92 % 0 % 1006,8 hPa 0,0 l/m 0,0 km/h (0 Bft) N 0,00 h 0,0 UV-I -1,8 C -1,1 C 0,0 km/h (0 Bft)
17.02.2011 20:00 -0,4 C 4,8 C -0,8 C -0,7 C -1,3 C 0,0 C 90 % 92 % 0 % 1007,2 hPa 0,0 l/m 0,0 km/h (0 Bft) N 0,00 h 0,0 UV-I -1,9 C -1,3 C 0,0 km/h (0 Bft)
17.02.2011 21:00 -0,5 C 4,8 C -0,9 C -0,8 C -1,4 C 0,0 C 90 % 92 % 0 % 1007,8 hPa 0,0 l/m 0,0 km/h (0 Bft) N 0,00 h 0,0 UV-I -2,0 C -1,4 C 0,0 km/h (0 Bft)
17.02.2011 22:00 -0,6 C 4,8 C -1,1 C -0,9 C -1,5 C 0,0 C 90 % 92 % 0 % 1008,3 hPa 0,0 l/m 0,0 km/h (0 Bft) N 0,00 h 0,0 UV-I -2,0 C -1,5 C 0,0 km/h (0 Bft)
17.02.2011 23:00 -0,8 C 4,8 C -1,3 C -1,1 C -1,7 C 0,0 C 90 % 93 % 0 % 1008,5 hPa 0,0 l/m 0,0 km/h (0 Bft) N 0,00 h 0,0 UV-I -2,2 C -1,7 C 0,0 km/h (0 Bft)
18.02.2011 00:00 -0,8 C 4,8 C -1,3 C -1,1 C -1,8 C 0,0 C 90 % 93 % 0 % 1009,0 hPa 0,0 l/m 0,0 km/h (0 Bft) N 0,00 h 0,0 UV-I -2,3 C -1,8 C 0,0 km/h (0 Bft)
18.02.2011 01:00 -1,0 C 4,8 C -1,5 C -1,3 C -2,0 C 0,0 C 90 % 93 % 0 % 1009,4 hPa 0,0 l/m 0,0 km/h (0 Bft) N 0,00 h 0,0 UV-I -2,4 C -2,0 C 0,0 km/h (0 Bft)
18.02.2011 02:00 -1,2 C 4,9 C -1,7 C -1,5 C -2,2 C 0,0 C 90 % 93 % 0 % 1009,5 hPa 0,0 l/m 0,0 km/h (0 Bft) N 0,00 h 0,0 UV-I -2,6 C -2,2 C 0,0 km/h (0 Bft)
18.02.2011 03:00 -1,3 C 4,9 C -1,9 C -1,6 C -2,3 C 0,0 C 90 % 93 % 0 % 1009,7 hPa 0,0 l/m 0,0 km/h (0 Bft) N 0,00 h 0,0 UV-I -2,7 C -2,3 C 0,0 km/h (0 Bft)
18.02.2011 04:00 -1,3 C 4,9 C -1,8 C -1,6 C -2,3 C 0,0 C 90 % 93 % 0 % 1009,7 hPa 0,0 l/m 0,0 km/h (0 Bft) N 0,00 h 0,0 UV-I -2,7 C -2,3 C 0,0 km/h (0 Bft)
18.02.2011 05:00 -1,3 C 4,9 C -1,9 C -1,6 C -2,3 C 0,0 C 90 % 93 % 0 % 1009,8 hPa 0,0 l/m 0,0 km/h (0 Bft) N 0,00 h 0,0 UV-I -2,7 C -2,3 C 0,0 km/h (0 Bft)
18.02.2011 06:00 -1,4 C 4,7 C -1,9 C -1,7 C -2,3 C 0,0 C 91 % 93 % 0 % 1010,6 hPa 0,0 l/m 0,0 km/h (0 Bft) N 0,00 h 0,0 UV-I -2,7 C -2,3 C 0,0 km/h (0 Bft)
18.02.2011 07:00 -1,5 C 4,7 C -1,9 C -1,8 C -2,4 C 0,0 C 91 % 93 % 0 % 1011,4 hPa 0,0 l/m 0,0 km/h (0 Bft) N 0,00 h 0,0 UV-I -2,8 C -2,4 C 0,0 km/h (0 Bft)
18.02.2011 08:00 -1,2 C 4,8 C -1,8 C -1,5 C -2,0 C 0,0 C 91 % 93 % 0 % 1012,0 hPa 0,0 l/m 0,0 km/h (0 Bft) N 0,00 h 0,0 UV-I -2,4 C -2,0 C 0,0 km/h (0 Bft)
18.02.2011 09:00 -0,5 C 4,8 C -1,3 C -0,6 C -0,9 C 0,0 C 89 % 93 % 0 % 1012,2 hPa 0,0 l/m 0,0 km/h (0 Bft) N 0,00 h 0,0 UV-I -2,0 C -0,9 C 0,0 km/h (0 Bft)
18.02.2011 10:00 0,1 C 4,8 C -0,9 C 0,2 C 0,1 C 0,1 C 87 % 92 % 2 % 1012,9 hPa 0,0 l/m 0,0 km/h (0 Bft) N 0,00 h 0,1 UV-I -1,7 C 0,1 C 0,0 km/h (0 Bft)
18.02.2011 11:00 0,6 C 4,7 C -0,5 C 0,8 C 0,7 C 0,2 C 85 % 91 % 4 % 1012,9 hPa 0,0 l/m 0,0 km/h (0 Bft) N 0,00 h 0,1 UV-I -1,5 C 0,7 C 0,0 km/h (0 Bft)
18.02.2011 12:00 0,5 C 4,7 C -0,6 C 0,4 C 0,2 C 0,0 C 85 % 90 % 0 % 1013,1 hPa 0,0 l/m 0,0 km/h (0 Bft) N 0,00 h 0,1 UV-I -1,7 C 0,2 C 0,0 km/h (0 Bft)
18.02.2011 13:00 0,2 C 4,8 C -0,8 C 0,1 C -0,2 C 0,0 C 86 % 91 % 0 % 1013,3 hPa 0,0 l/m 0,0 km/h (0 Bft) N 0,00 h 0,1 UV-I -1,9 C -0,2 C 0,0 km/h (0 Bft)
18.02.2011 14:00 -0,1 C 4,8 C -1,1 C -0,5 C -1,1 C 0,0 C 87 % 92 % 0 % 1013,7 hPa 0,0 l/m 0,0 km/h (0 Bft) N 0,00 h 0,0 UV-I -2,1 C -1,1 C 0,0 km/h (0 Bft)
18.02.2011 15:00 -0,4 C 4,8 C -1,3 C -0,7 C -1,5 C 0,0 C 87 % 92 % 0 % 1014,1 hPa 0,0 l/m 0,0 km/h (0 Bft) N 0,00 h 0,0 UV-I -2,2 C -1,5 C 0,0 km/h (0 Bft)
18.02.2011 16:00 -0,6 C 4,7 C -1,4 C -1,0 C -1,9 C 0,0 C 87 % 92 % 0 % 1014,6 hPa 0,0 l/m 0,0 km/h (0 Bft) N 0,00 h 0,0 UV-I -2,5 C -1,9 C 0,0 km/h (0 Bft)
18.02.2011 17:00 -0,9 C 4,7 C -1,6 C -1,3 C -2,1 C 0,0 C 87 % 92 % 0 % 1014,8 hPa 0,0 l/m 0,0 km/h (0 Bft) N 0,00 h 0,0 UV-I -2,7 C -2,1 C 0,0 km/h (0 Bft)
18.02.2011 18:00 -1,0 C 4,7 C -1,7 C -1,4 C -2,4 C 0,0 C 88 % 92 % 0 % 1015,3 hPa 0,0 l/m 0,0 km/h (0 Bft) N 0,00 h 0,0 UV-I -2,7 C -2,4 C 0,0 km/h (0 Bft)
18.02.2011 19:00 -1,2 C 4,7 C -1,9 C -1,6 C -2,5 C 0,0 C 89 % 93 % 0 % 1015,5 hPa 0,0 l/m 0,0 km/h (0 Bft) N 0,00 h 0,0 UV-I -2,8 C -2,5 C 0,0 km/h (0 Bft)
18.02.2011 20:00 -1,3 C 4,7 C -2,0 C -1,7 C -2,5 C 0,0 C 90 % 93 % 0 % 1015,4 hPa 0,0 l/m 0,0 km/h (0 Bft) N 0,00 h 0,0 UV-I -2,8 C -2,5 C 0,0 km/h (0 Bft)
18.02.2011 21:00 -1,3 C 4,6 C -2,0 C -1,7 C -2,6 C 0,0 C 90 % 93 % 0 % 1015,6 hPa 0,0 l/m 0,0 km/h (0 Bft) N 0,00 h 0,0 UV-I -2,8 C -2,6 C 0,0 km/h (0 Bft)
18.02.2011 22:00 -1,3 C 4,6 C -2,0 C -1,8 C -2,7 C 0,0 C 89 % 93 % 0 % 1015,7 hPa 0,0 l/m 0,0 km/h (0 Bft) N 0,00 h 0,0 UV-I -2,9 C -2,7 C 0,0 km/h (0 Bft)
18.02.2011 23:00 -1,4 C 4,6 C -2,1 C -1,9 C -2,7 C 0,0 C 89 % 93 % 0 % 1015,9 hPa 0,0 l/m 0,0 km/h (0 Bft) N 0,00 h 0,0 UV-I -3,0 C -2,7 C 0,0 km/h (0 Bft)
19.02.2011 00:00 -1,5 C 4,6 C -2,1 C -1,9 C -2,7 C 0,0 C 89 % 93 % 0 % 1016,1 hPa 0,0 l/m 0,0 km/h (0 Bft) N 0,00 h 0,0 UV-I -3,1 C -2,7 C 0,0 km/h (0 Bft)
19.02.2011 01:00 -1,6 C 4,6 C -2,1 C -2,0 C -2,7 C 0,0 C 89 % 93 % 0 % 1016,5 hPa 0,0 l/m 0,0 km/h (0 Bft) N 0,00 h 0,0 UV-I -3,2 C -2,7 C 0,0 km/h (0 Bft)
19.02.2011 02:00 -1,7 C 4,6 C -2,1 C -2,1 C -2,8 C 0,0 C 89 % 93 % 0 % 1016,0 hPa 0,0 l/m 0,0 km/h (0 Bft) N 0,00 h 0,0 UV-I -3,3 C -2,8 C 0,0 km/h (0 Bft)
19.02.2011 03:00 -1,7 C 4,6 C -2,2 C -2,1 C -2,9 C 0,0 C 89 % 93 % 0 % 1015,5 hPa 0,0 l/m 0,0 km/h (0 Bft) N 0,00 h 0,0 UV-I -3,3 C -2,9 C 0,0 km/h (0 Bft)
19.02.2011 04:00 -1,7 C 4,6 C -2,3 C -2,1 C -3,0 C 0,0 C 89 % 93 % 0 % 1015,8 hPa 0,0 l/m 0,0 km/h (0 Bft) N 0,00 h 0,0 UV-I -3,3 C -3,0 C 0,0 km/h (0 Bft)
19.02.2011 05:00 -1,8 C 4,6 C -2,4 C -2,2 C -3,0 C 0,0 C 88 % 93 % 0 % 1016,0 hPa 0,0 l/m 0,0 km/h (0 Bft) N 0,00 h 0,0 UV-I -3,5 C -3,0 C 0,0 km/h (0 Bft)
19.02.2011 06:00 -2,0 C 4,5 C -2,3 C -2,3 C -3,0 C 0,0 C 88 % 92 % 0 % 1015,9 hPa 0,0 l/m 0,0 km/h (0 Bft) N 0,00 h 0,0 UV-I -3,7 C -3,0 C 0,0 km/h (0 Bft)
19.02.2011 07:00 -2,0 C 4,5 C -2,4 C -2,3 C -3,1 C 0,0 C 88 % 92 % 0 % 1016,0 hPa 0,0 l/m 0,0 km/h (0 Bft) N 0,00 h 0,0 UV-I -3,7 C -3,1 C 0,0 km/h (0 Bft)
19.02.2011 08:00 -1,7 C 4,5 C -2,3 C -2,1 C -2,7 C 0,0 C 88 % 92 % 0 % 1016,1 hPa 0,0 l/m 0,0 km/h (0 Bft) N 0,00 h 0,0 UV-I -3,5 C -2,7 C 0,0 km/h (0 Bft)
19.02.2011 09:00 -1,4 C 4,5 C -2,0 C -1,7 C -2,2 C 0,0 C 87 % 91 % 0 % 1016,5 hPa 0,0 l/m 0,0 km/h (0 Bft) N 0,00 h 0,0 UV-I -3,3 C -2,2 C 0,0 km/h (0 Bft)
19.02.2011 10:00 -0,9 C 4,3 C -1,6 C -1,0 C -1,3 C 0,0 C 86 % 91 % 0 % 1016,4 hPa 0,0 l/m 0,0 km/h (0 Bft) N 0,00 h 0,0 UV-I -3,0 C -1,3 C 0,0 km/h (0 Bft)
19.02.2011 11:00 -0,8 C 4,3 C -1,4 C -0,8 C -0,9 C 0,0 C 84 % 89 % 0 % 1017,0 hPa 0,0 l/m 0,0 km/h (0 Bft) N 0,00 h 0,0 UV-I -3,0 C -0,9 C 0,0 km/h (0 Bft)
19.02.2011 12:00 -0,4 C 4,2 C -1,3 C -0,5 C -0,5 C 0,0 C 83 % 88 % 0 % 1017,2 hPa 0,0 l/m 0,0 km/h (0 Bft) N 0,00 h 0,1 UV-I -3,0 C -0,5 C 0,0 km/h (0 Bft)
19.02.2011 13:00 -0,2 C 4,1 C -1,1 C -0,1 C -0,2 C 0,0 C 81 % 87 % 1 % 1017,1 hPa 0,0 l/m 0,0 km/h (0 Bft) N 0,00 h 0,1 UV-I -3,0 C -0,2 C 0,0 km/h (0 Bft)
19.02.2011 14:00 -0,3 C 4,1 C -1,1 C -0,3 C -0,4 C 0,0 C 81 % 87 % 0 % 1017,1 hPa 0,0 l/m 0,0 km/h (0 Bft) N 0,00 h 0,1 UV-I -3,1 C -0,4 C 0,0 km/h (0 Bft)
19.02.2011 15:00 -0,7 C 4,1 C -1,3 C -0,8 C -1,1 C 0,0 C 82 % 87 % 0 % 1017,4 hPa 0,0 l/m 0,0 km/h (0 Bft) N 0,00 h 0,0 UV-I -3,4 C -1,1 C 0,0 km/h (0 Bft)
19.02.2011 16:00 -1,1 C 4,2 C -1,6 C -1,4 C -2,1 C 0,0 C 83 % 88 % 0 % 1017,5 hPa 0,0 l/m 1,0 km/h (0 Bft) W-SW 0,00 h 0,0 UV-I -3,6 C -2,1 C 1,6 km/h (1 Bft)
19.02.2011 17:00 -1,8 C 4,2 C -2,1 C -2,4 C -3,6 C 0,0 C 85 % 89 % 0 % 1017,6 hPa 0,0 l/m 3,4 km/h (1 Bft) W-SW 0,00 h 0,0 UV-I -4,0 C -3,6 C 4,9 km/h (1 Bft)
19.02.2011 18:00 -2,1 C 4,2 C -2,3 C -2,5 C -3,2 C 0,0 C 85 % 89 % 0 % 1018,1 hPa 0,0 l/m 2,6 km/h (1 Bft) SW 0,00 h 0,0 UV-I -4,3 C -3,2 C 2,9 km/h (1 Bft)
19.02.2011 19:00 -2,2 C 4,1 C -2,5 C -2,7 C -3,8 C 0,0 C 85 % 88 % 0 % 1018,5 hPa 0,0 l/m 2,9 km/h (1 Bft) SW 0,00 h 0,0 UV-I -4,4 C -3,8 C 3,7 km/h (1 Bft)
19.02.2011 20:00 -2,4 C 4,1 C -2,6 C -3,1 C -4,6 C 0,0 C 85 % 88 % 0 % 1018,7 hPa 0,0 l/m 4,0 km/h (1 Bft) SW 0,00 h 0,0 UV-I -4,6 C -5,0 C 5,2 km/h (1 Bft)
19.02.2011 21:00 -2,7 C 4,2 C -2,9 C -3,1 C -4,1 C 0,0 C 84 % 88 % 0 % 1019,1 hPa 0,0 l/m 2,8 km/h (1 Bft) W-SW 0,00 h 0,0 UV-I -5,0 C -4,1 C 4,1 km/h (1 Bft)
19.02.2011 22:00 -3,0 C 4,0 C -3,3 C -3,5 C -4,5 C 0,0 C 84 % 87 % 0 % 1019,0 hPa 0,0 l/m 2,8 km/h (1 Bft) SW 0,00 h 0,0 UV-I -5,4 C -4,5 C 3,8 km/h (1 Bft)
19.02.2011 23:00 -3,2 C 4,0 C -3,5 C -3,8 C -5,0 C 0,0 C 84 % 87 % 0 % 1018,6 hPa 0,0 l/m 3,2 km/h (1 Bft) SW 0,00 h 0,0 UV-I -5,6 C -5,0 C 4,0 km/h (1 Bft)
20.02.2011 00:00 -3,4 C 4,0 C -3,7 C -4,1 C -5,4 C 0,0 C 83 % 87 % 0 % 1018,8 hPa 0,0 l/m 3,6 km/h (1 Bft) S 0,00 h 0,0 UV-I -5,8 C -5,8 C 6,3 km/h (2 Bft)
20.02.2011 01:00 -3,7 C 4,0 C -3,9 C -4,6 C -6,5 C 0,0 C 84 % 87 % 0 % 1018,8 hPa 0,0 l/m 5,0 km/h (1 Bft) SW 0,00 h 0,0 UV-I -6,0 C -8,4 C 6,2 km/h (2 Bft)
20.02.2011 02:00 -3,9 C 4,0 C -4,1 C -4,9 C -6,8 C 0,0 C 84 % 88 % 0 % 1018,5 hPa 0,0 l/m 5,0 km/h (1 Bft) SW 0,00 h 0,0 UV-I -6,2 C -8,7 C 6,4 km/h (2 Bft)
20.02.2011 03:00 -4,1 C 4,1 C -4,3 C -4,9 C -6,6 C 0,0 C 84 % 88 % 0 % 1018,3 hPa 0,0 l/m 4,1 km/h (1 Bft) SW 0,00 h 0,0 UV-I -6,3 C -7,0 C 4,9 km/h (1 Bft)
20.02.2011 04:00 -4,2 C 3,9 C -4,4 C -5,1 C -6,9 C 0,0 C 83 % 87 % 0 % 1018,6 hPa 0,0 l/m 4,6 km/h (1 Bft) SW 0,00 h 0,0 UV-I -6,6 C -8,8 C 5,1 km/h (1 Bft)
20.02.2011 05:00 -4,5 C 3,9 C -4,6 C -5,6 C -8,9 C 0,0 C 82 % 86 % 0 % 1018,3 hPa 0,0 l/m 9,0 km/h (2 Bft) SW 0,00 h 0,0 UV-I -7,0 C -13,4 C 13,5 km/h (3 Bft)
20.02.2011 06:00 -4,8 C 3,8 C -4,9 C -6,0 C -9,7 C 0,0 C 81 % 85 % 0 % 1018,0 hPa 0,0 l/m 10,3 km/h (2 Bft) SW 0,00 h 0,0 UV-I -7,5 C -15,0 C 11,8 km/h (2 Bft)
20.02.2011 07:00 -5,2 C 3,8 C -5,3 C -6,5 C -10,3 C 0,0 C 79 % 83 % 0 % 1018,1 hPa 0,0 l/m 10,3 km/h (2 Bft) SW 0,00 h 0,0 UV-I -8,2 C -15,7 C 13,2 km/h (3 Bft)
20.02.2011 08:00 -5,5 C 3,8 C -5,7 C -6,8 C -10,4 C 0,0 C 78 % 82 % 0 % 1018,4 hPa 0,0 l/m 9,7 km/h (2 Bft) W-SW 0,00 h 0,0 UV-I -8,6 C -15,5 C 10,4 km/h (2 Bft)
20.02.2011 09:00 -4,9 C 3,8 C -5,3 C -5,9 C -7,8 C 0,0 C 81 % 85 % 0 % 1018,9 hPa 0,0 l/m 5,8 km/h (2 Bft) W-SW 0,00 h 0,1 UV-I -7,7 C -10,9 C 7,8 km/h (2 Bft)
20.02.2011 10:00 -5,0 C 3,7 C -5,5 C -5,9 C -9,0 C 0,0 C 75 % 80 % 0 % 1019,0 hPa 0,0 l/m 9,7 km/h (2 Bft) SW 0,00 h 0,3 UV-I -8,8 C -14,0 C 11,8 km/h (2 Bft)
20.02.2011 11:00 -4,7 C 3,7 C -5,4 C -5,6 C -8,5 C 0,0 C 72 % 77 % 0 % 1019,1 hPa 0,0 l/m 10,4 km/h (2 Bft) SW 0,00 h 0,5 UV-I -9,0 C -13,6 C 11,5 km/h (2 Bft)
20.02.2011 12:00 -3,9 C 3,6 C -4,5 C -4,3 C -6,2 C 0,1 C 70 % 76 % 2 % 1019,1 hPa 0,0 l/m 9,1 km/h (2 Bft) SW 0,00 h 0,6 UV-I -8,4 C -10,4 C 10,6 km/h (2 Bft)
20.02.2011 13:00 -3,1 C 3,6 C -3,5 C -1,6 C -2,7 C 1,5 C 68 % 73 % 39 % 1019,0 hPa 0,0 l/m 11,5 km/h (2 Bft) SW 0,00 h 0,6 UV-I -8,2 C -6,9 C 13,8 km/h (3 Bft)
20.02.2011 14:00 -4,5 C 3,7 C -3,5 C -4,9 C -7,2 C 0,0 C 70 % 72 % 0 % 1019,0 hPa 0,0 l/m 11,7 km/h (2 Bft) W-SW 0,00 h 0,3 UV-I -9,2 C -12,4 C 14,8 km/h (3 Bft)
20.02.2011 15:00 -4,5 C 3,7 C -3,1 C -4,4 C -5,9 C 0,4 C 70 % 69 % 10 % 1018,7 hPa 0,0 l/m 8,9 km/h (2 Bft) W-SW 0,00 h 0,1 UV-I -9,1 C -10,0 C 9,9 km/h (2 Bft)
20.02.2011 16:00 -4,5 C 3,7 C -4,1 C -5,0 C -6,9 C 0,0 C 71 % 73 % 0 % 1018,2 hPa 0,0 l/m 8,1 km/h (2 Bft) SW 0,00 h 0,0 UV-I -8,9 C -10,9 C 9,4 km/h (2 Bft)
20.02.2011 17:00 -5,5 C 3,6 C -5,5 C -6,9 C -10,1 C 0,0 C 72 % 76 % 0 % 1018,9 hPa 0,0 l/m 6,8 km/h (2 Bft) SW 0,00 h 0,0 UV-I -9,6 C -14,0 C 8,1 km/h (2 Bft)
20.02.2011 18:00 -6,3 C 3,6 C -6,5 C -7,6 C -10,2 C 0,0 C 74 % 78 % 0 % 1019,6 hPa 0,0 l/m 4,2 km/h (1 Bft) SW 0,00 h 0,0 UV-I -10,1 C -11,5 C 4,5 km/h (1 Bft)
20.02.2011 19:00 -6,3 C 3,6 C -6,5 C -7,7 C -10,9 C 0,0 C 75 % 79 % 0 % 1019,7 hPa 0,0 l/m 6,8 km/h (2 Bft) SW 0,00 h 0,0 UV-I -9,9 C -14,9 C 7,4 km/h (2 Bft)
20.02.2011 20:00 -7,1 C 3,6 C -7,5 C -8,3 C -10,5 C 0,0 C 75 % 79 % 0 % 1019,9 hPa 0,0 l/m 3,0 km/h (1 Bft) SW 0,00 h 0,0 UV-I -10,7 C -11,1 C 3,3 km/h (1 Bft)
20.02.2011 21:00 -8,0 C 3,6 C -8,6 C -9,2 C -11,6 C 0,0 C 76 % 81 % 0 % 1020,0 hPa 0,0 l/m 2,2 km/h (1 Bft) SW 0,00 h 0,0 UV-I -11,5 C -11,6 C 2,6 km/h (1 Bft)
20.02.2011 22:00 -8,5 C 3,6 C -8,9 C -9,6 C -11,9 C 0,0 C 77 % 81 % 0 % 1020,1 hPa 0,0 l/m 1,4 km/h (1 Bft) SW 0,00 h 0,0 UV-I -11,8 C -11,9 C 1,8 km/h (1 Bft)
20.02.2011 23:00 -8,9 C 3,6 C -9,2 C -10,2 C -12,7 C 0,0 C 77 % 81 % 0 % 1020,0 hPa 0,0 l/m 2,8 km/h (1 Bft) SW 0,00 h 0,0 UV-I -12,2 C -12,7 C 2,6 km/h (1 Bft)
Min-Datum _ 20.02.11 20.02.11 20.02.11 20.02.11 20.02.11 14.02.11 16.02.11 16.02.11 14.02.11 17.02.11 - 14.02.11 - - 14.02.11 20.02.11 20.02.11 14.02.11
_ Min-Zeit 23:45 11:10 23:20 23:30 23:30 00:00 12:30 15:20 00:00 04:15 - 06:00 - - 00:00 23:45 07:50 00:00
Minimum _ -9,1 C 3,6 C -9,3 C -10,4 C -13,4 C 0,0 C 65 % 60 % 0 % 1001,1 hPa - 0,0 km/h (0 Bft) - - 0,0 UV-I -12,4 C -17,8 C 0,0 km/h (0 Bft)
Max-Datum _ 14.02.11 14.02.11 16.02.11 16.02.11 16.02.11 16.02.11 18.02.11 14.02.11 16.02.11 20.02.11 14.02.11 14.02.11 - 15.02.11 20.02.11 14.02.11 16.02.11 20.02.11
_ Max-Zeit 13:40 17:25 15:20 15:40 15:40 15:40 05:35 00:10 15:20 20:15 00:00 15:25 - 12:09 12:55 15:00 15:40 07:50
Maximum _ 5,3 C 5,7 C 6,9 C 9,0 C 9,0 C 4,5 C 91 % 94 % 100 % 1020,1 hPa 0,0 l/m 13,5 km/h
SW (3 Bft)
- 0,15 h 0,7 UV-I 1,1 C 8,3 C 24,9 km/h
SW (4 Bft)
Durchschnitt _ -0,3 C 4,6 C -0,7 C -0,6 C -1,6 C 0,1 C 81 % 85 % 3 % 1009,9 hPa #0,0 l/m 3,2 km/h (1 Bft) W-SW #2:01 h 0,2 UV-I -3,2 C -2,4 C 4,0 km/h (1 Bft)
2013 www.wetterstation-wechselburg.de